createdAt,value
2023-01-08T00:01:17.908Z,100023.09
2023-01-08T00:06:29.989Z,100021.25
2023-01-08T00:09:01.879Z,100023.59
2023-01-08T00:11:28.935Z,100019.72
2023-01-08T00:14:00.115Z,100021.09
2023-01-08T00:16:28.115Z,100009.09
2023-01-08T00:18:55.485Z,100006.41
2023-01-08T00:21:22.092Z,100017.19
2023-01-08T00:23:49.003Z,100013.47
2023-01-08T00:26:17.521Z,100008.91
2023-01-08T00:28:44.570Z,100001.84
2023-01-08T00:31:13.222Z,100006.56
2023-01-08T00:33:45.643Z,100005.22
2023-01-08T00:36:19.957Z,100010.41
2023-01-08T00:38:49.806Z,99999.63
2023-01-08T00:41:17.324Z,99988.84
2023-01-08T00:43:51.811Z,99995.44
2023-01-08T00:46:24.063Z,99992.09
2023-01-08T00:48:51.092Z,99983.50
2023-01-08T00:51:17.859Z,99991.44
2023-01-08T00:53:44.738Z,99985.53
2023-01-08T00:56:11.536Z,99982.69
2023-01-08T00:58:39.171Z,99987.28
2023-01-08T01:01:14.202Z,99996.25
2023-01-08T01:03:43.527Z,99989.28
2023-01-08T01:06:12.778Z,99985.78
2023-01-08T01:08:39.490Z,99979.88
2023-01-08T01:11:14.098Z,99984.13
2023-01-08T01:13:40.902Z,99991.84
2023-01-08T01:16:10.319Z,99993.56
2023-01-08T01:18:37.766Z,99977.00
2023-01-08T01:21:16.032Z,99981.19
2023-01-08T01:23:45.193Z,99973.97
2023-01-08T01:26:20.614Z,99969.94
2023-01-08T01:28:48.753Z,99964.38
2023-01-08T01:31:16.264Z,99972.09
2023-01-08T01:33:49.184Z,99970.78
2023-01-08T01:36:21.687Z,99970.47
2023-01-08T01:38:52.454Z,99971.13
2023-01-08T01:41:25.724Z,99986.66
2023-01-08T01:43:56.250Z,99993.56
2023-01-08T01:46:30.289Z,99987.78
2023-01-08T01:49:06.226Z,99991.97
2023-01-08T01:51:40.298Z,99989.16
2023-01-08T01:54:12.027Z,100007.72
2023-01-08T01:56:42.303Z,100001.56
2023-01-08T01:59:14.406Z,99991.66
2023-01-08T02:01:45.274Z,99995.72
2023-01-08T02:04:16.224Z,99997.03
2023-01-08T02:06:55.194Z,99997.56
2023-01-08T02:09:53.404Z,99989.69
2023-01-08T02:12:34.637Z,99985.94
2023-01-08T02:15:24.092Z,99990.00
2023-01-08T02:18:07.740Z,100002.41
2023-01-08T02:20:57.884Z,99997.88
2023-01-08T02:23:56.359Z,99991.97
2023-01-08T02:26:32.479Z,99990.81
2023-01-08T02:29:12.608Z,99989.47
2023-01-08T02:31:42.340Z,99987.13
2023-01-08T02:34:13.010Z,99987.13
2023-01-08T02:37:00.728Z,99975.03
2023-01-08T02:39:50.582Z,99966.31
2023-01-08T02:42:31.139Z,99957.88
2023-01-08T02:45:33.667Z,99960.91
2023-01-08T02:48:16.295Z,99969.81
2023-01-08T02:50:59.720Z,99951.66
2023-01-08T02:53:41.518Z,99958.25
2023-01-08T02:56:27.015Z,99947.84
2023-01-08T02:59:00.447Z,99948.66
2023-01-08T03:01:29.182Z,99943.28
2023-01-08T03:04:07.004Z,99951.84
2023-01-08T03:06:38.273Z,99948.97
2023-01-08T03:09:13.002Z,99943.09
2023-01-08T03:12:03.551Z,99941.59
2023-01-08T03:14:53.687Z,99944.41
2023-01-08T03:17:32.515Z,99939.22
2023-01-08T03:20:24.327Z,99939.88
2023-01-08T03:23:03.788Z,99942.56
2023-01-08T03:25:40.688Z,99933.50
2023-01-08T03:28:15.446Z,99932.19
2023-01-08T03:30:49.200Z,99963.66
2023-01-08T03:33:19.178Z,99951.53
2023-01-08T03:35:50.644Z,99952.25
2023-01-08T03:38:47.611Z,99957.97
2023-01-08T03:41:21.584Z,99952.59
2023-01-08T03:43:48.362Z,99953.25
2023-01-08T03:46:25.054Z,99954.94
2023-01-08T03:49:12.209Z,99936.59
2023-01-08T03:51:43.975Z,99930.41
2023-01-08T03:54:25.579Z,99925.50
2023-01-08T03:56:55.001Z,99918.28
2023-01-08T03:59:22.884Z,99909.84
2023-01-08T04:01:55.225Z,99923.50
2023-01-08T04:04:26.970Z,99928.03
2023-01-08T04:06:54.102Z,99930.22
2023-01-08T04:09:26.020Z,99933.75
2023-01-08T04:12:02.226Z,99927.53
2023-01-08T04:14:31.774Z,99920.63
2023-01-08T04:16:58.952Z,99914.56
2023-01-08T04:19:28.753Z,99908.34
2023-01-08T04:22:01.232Z,99897.59
2023-01-08T04:24:36.951Z,99912.22
2023-01-08T04:27:06.835Z,99919.97
2023-01-08T04:29:45.319Z,99908.34
2023-01-08T04:32:12.121Z,99917.94
2023-01-08T04:34:41.729Z,99912.75
2023-01-08T04:37:15.465Z,99905.00
2023-01-08T04:39:42.657Z,99902.97
2023-01-08T04:42:13.660Z,99881.13
2023-01-08T04:44:47.457Z,99891.22
2023-01-08T04:47:21.454Z,99893.72
2023-01-08T04:49:51.660Z,99881.31
2023-01-08T04:52:26.184Z,99887.16
2023-01-08T04:54:54.386Z,99887.69
2023-01-08T04:57:42.675Z,99894.91
2023-01-08T05:00:18.889Z,99911.38
2023-01-08T05:02:49.564Z,99905.66
2023-01-08T05:05:19.011Z,99902.97
2023-01-08T05:07:50.683Z,99898.63
2023-01-08T05:10:19.461Z,99893.72
2023-01-08T05:12:51.015Z,99882.63
2023-01-08T05:15:20.330Z,99879.09
2023-01-08T05:17:53.400Z,99882.16
2023-01-08T05:20:20.360Z,99888.03
2023-01-08T05:22:54.377Z,99888.03
2023-01-08T05:25:25.148Z,99896.28
2023-01-08T05:27:54.972Z,99903.50
2023-01-08T05:30:22.392Z,99896.44
2023-01-08T05:32:49.302Z,99895.25
2023-01-08T05:35:16.115Z,99885.34
2023-01-08T05:37:46.076Z,99880.66
2023-01-08T05:40:15.886Z,99882.16
2023-01-08T05:42:45.437Z,99881.13
2023-01-08T05:45:16.888Z,99867.53
2023-01-08T05:47:43.900Z,99869.19
2023-01-08T05:50:10.942Z,99878.28
2023-01-08T05:52:40.097Z,99882.31
2023-01-08T05:55:07.336Z,99880.81
2023-01-08T05:57:37.156Z,99887.38
2023-01-08T06:00:11.458Z,99885.53
2023-01-08T06:02:48.060Z,99890.91
2023-01-08T06:05:15.959Z,99895.09
2023-01-08T06:07:44.215Z,99891.09
2023-01-08T06:10:13.984Z,99892.59
2023-01-08T06:12:48.836Z,99886.88
2023-01-08T06:15:22.874Z,99891.41
2023-01-08T06:17:51.118Z,99881.31
2023-01-08T06:20:25.212Z,99885.72
2023-01-08T06:22:54.940Z,99886.69
2023-01-08T06:25:32.625Z,99880.31
2023-01-08T06:28:06.081Z,99895.78
2023-01-08T06:30:44.009Z,99894.59
2023-01-08T06:33:16.311Z,99894.94
2023-01-08T06:35:48.929Z,99895.94
2023-01-08T06:38:19.437Z,99891.38
2023-01-08T06:40:49.730Z,99894.75
2023-01-08T06:43:22.609Z,99894.59
2023-01-08T06:45:59.640Z,99901.28
2023-01-08T06:48:27.471Z,99891.56
2023-01-08T06:51:00.385Z,99904.16
2023-01-08T06:53:34.055Z,99903.28
2023-01-08T06:56:07.733Z,99904.47
2023-01-08T06:58:34.989Z,99902.63
2023-01-08T07:01:09.509Z,99919.25
2023-01-08T07:03:36.572Z,99913.03
2023-01-08T07:06:09.437Z,99912.03
2023-01-08T07:08:39.633Z,99908.66
2023-01-08T07:11:09.572Z,99911.81
2023-01-08T07:13:36.521Z,99920.19
2023-01-08T07:16:13.150Z,99912.84
2023-01-08T07:18:43.324Z,99907.28
2023-01-08T07:21:10.234Z,99917.00
2023-01-08T07:23:43.963Z,99909.44
2023-01-08T07:26:11.069Z,99902.91
2023-01-08T07:28:42.122Z,99900.38
2023-01-08T07:31:12.148Z,99899.84
2023-01-08T07:33:42.337Z,99893.44
2023-01-08T07:36:09.545Z,99890.13
2023-01-08T07:38:38.307Z,99889.47
2023-01-08T07:41:05.455Z,99884.25
2023-01-08T07:43:32.287Z,99877.84
2023-01-08T07:46:01.739Z,99877.19
2023-01-08T07:48:33.692Z,99874.16
2023-01-08T07:51:05.039Z,99877.00
2023-01-08T07:53:32.456Z,99880.47
2023-01-08T07:56:08.581Z,99881.00
2023-01-08T07:58:36.188Z,99876.31
2023-01-08T08:01:06.812Z,99885.25
2023-01-08T08:03:36.463Z,99890.25
2023-01-08T08:06:03.251Z,99891.38
2023-01-08T08:08:30.139Z,99900.31
2023-01-08T08:10:56.735Z,99889.91
2023-01-08T08:13:23.436Z,99889.25
2023-01-08T08:15:49.928Z,99880.56
2023-01-08T08:18:16.886Z,99886.09
2023-01-08T08:20:43.453Z,99883.75
2023-01-08T08:23:14.977Z,99878.91
2023-01-08T08:25:42.759Z,99881.06
2023-01-08T08:28:11.368Z,99876.72
2023-01-08T08:30:42.013Z,99882.59
2023-01-08T08:33:11.885Z,99873.22
2023-01-08T08:35:41.077Z,99874.78
2023-01-08T08:38:07.717Z,99867.66
2023-01-08T08:40:34.448Z,99855.59
2023-01-08T08:43:03.117Z,99856.59
2023-01-08T08:45:30.075Z,99854.56
2023-01-08T08:48:02.476Z,99852.72
2023-01-08T08:50:29.338Z,99858.75
2023-01-08T08:53:00.749Z,99853.38
2023-01-08T08:55:28.223Z,99848.84
2023-01-08T08:57:54.912Z,99840.31
2023-01-08T09:00:21.409Z,99822.03
2023-01-08T09:02:50.726Z,99830.94
2023-01-08T09:05:17.501Z,99815.81
2023-01-08T09:07:44.513Z,99828.06
2023-01-08T09:10:11.084Z,99823.16
2023-01-08T09:12:37.663Z,99822.56
2023-01-08T09:15:05.824Z,99834.28
2023-01-08T09:17:32.643Z,99825.72
2023-01-08T09:19:59.629Z,99816.44
2023-01-08T09:22:26.325Z,99810.19
2023-01-08T09:24:57.372Z,99791.88
2023-01-08T09:27:27.243Z,99792.38
2023-01-08T09:29:53.912Z,99799.47
2023-01-08T09:32:26.490Z,99793.44
2023-01-08T09:34:53.347Z,99795.88
2023-01-08T09:37:20.125Z,99788.94
2023-01-08T09:39:51.144Z,99787.75
2023-01-08T09:42:25.796Z,99791.03
2023-01-08T09:44:55.843Z,99783.41
2023-01-08T09:47:29.865Z,99782.28
2023-01-08T09:50:04.408Z,99778.75
2023-01-08T09:52:32.653Z,99780.59
2023-01-08T09:55:03.443Z,99793.06
2023-01-08T09:57:30.364Z,99781.66
2023-01-08T09:59:58.657Z,99765.09
2023-01-08T10:02:28.683Z,99768.50
2023-01-08T10:05:00.896Z,99777.28
2023-01-08T10:07:31.331Z,99769.19
2023-01-08T10:09:58.061Z,99761.28
2023-01-08T10:12:31.726Z,99766.00
2023-01-08T10:15:14.616Z,99751.66
2023-01-08T10:17:55.871Z,99746.97
2023-01-08T10:20:25.277Z,99743.34
2023-01-08T10:22:57.340Z,99743.91
2023-01-08T10:25:27.368Z,99748.38
2023-01-08T10:28:04.109Z,99758.97
2023-01-08T10:30:30.712Z,99736.00
2023-01-08T10:33:03.167Z,99738.78
2023-01-08T10:35:41.798Z,99726.91
2023-01-08T10:38:25.934Z,99727.56
2023-01-08T10:40:52.942Z,99710.13
2023-01-08T10:43:22.999Z,99714.69
2023-01-08T10:46:03.883Z,99722.72
2023-01-08T10:48:36.444Z,99734.50
2023-01-08T10:51:18.706Z,99714.25
2023-01-08T10:53:45.479Z,99702.72
2023-01-08T10:56:31.174Z,99699.63
2023-01-08T10:58:58.931Z,99692.91
2023-01-08T11:01:31.620Z,99704.06
2023-01-08T11:04:05.346Z,99699.41
2023-01-08T11:06:45.365Z,99702.41
2023-01-08T11:09:47.746Z,99692.44
2023-01-08T11:12:40.774Z,99695.97
2023-01-08T11:15:17.882Z,99700.38
2023-01-08T11:17:45.490Z,99702.53
2023-01-08T11:20:29.869Z,99694.63
2023-01-08T11:23:06.593Z,99690.19
2023-01-08T11:25:35.232Z,99691.03
2023-01-08T11:28:04.508Z,99682.34
2023-01-08T11:30:34.206Z,99682.69
2023-01-08T11:33:13.187Z,99675.50
2023-01-08T11:35:46.322Z,99674.91
2023-01-08T11:38:13.457Z,99669.19
2023-01-08T11:40:39.959Z,99655.41
2023-01-08T11:43:34.911Z,99657.88
2023-01-08T11:46:26.223Z,99656.34
2023-01-08T11:49:09.439Z,99643.31
2023-01-08T11:52:01.947Z,99645.34
2023-01-08T11:54:53.496Z,99636.13
2023-01-08T11:57:35.054Z,99632.63
2023-01-08T12:00:39.346Z,99630.44
2023-01-08T12:03:19.136Z,99618.84
2023-01-08T12:06:23.046Z,99616.00
2023-01-08T12:09:14.988Z,99605.66
2023-01-08T12:11:49.817Z,99601.22
2023-01-08T12:14:45.441Z,99593.19
2023-01-08T12:17:14.859Z,99583.78
2023-01-08T12:19:50.386Z,99581.31
2023-01-08T12:22:42.106Z,99602.38
2023-01-08T12:25:17.552Z,99591.16
2023-01-08T12:27:58.959Z,99591.69
2023-01-08T12:30:36.635Z,99581.81
2023-01-08T12:33:08.271Z,99586.56
2023-01-08T12:35:47.031Z,99588.00
2023-01-08T12:38:26.651Z,99587.72
2023-01-08T12:41:06.677Z,99594.69
2023-01-08T12:43:55.396Z,99594.59
2023-01-08T12:46:36.368Z,99589.47
2023-01-08T12:49:06.986Z,99581.75
2023-01-08T12:51:51.832Z,99592.19
2023-01-08T12:54:34.038Z,99587.84
2023-01-08T12:57:29.946Z,99583.41
2023-01-08T13:00:12.295Z,99571.28
2023-01-08T13:02:48.149Z,99573.91
2023-01-08T13:05:20.938Z,99573.59
2023-01-08T13:07:56.113Z,99566.22
2023-01-08T13:10:31.603Z,99570.66
2023-01-08T13:13:02.068Z,99561.94
2023-01-08T13:15:31.790Z,99575.56
2023-01-08T13:18:08.583Z,99556.22
2023-01-08T13:20:35.539Z,99550.69
2023-01-08T13:23:04.688Z,99547.38
2023-01-08T13:25:37.350Z,99554.44
2023-01-08T13:28:25.518Z,99561.88
2023-01-08T13:30:52.601Z,99540.28
2023-01-08T13:33:36.457Z,99539.19
2023-01-08T13:36:27.524Z,99535.06
2023-01-08T13:39:12.437Z,99543.19
2023-01-08T13:42:13.115Z,99528.75
2023-01-08T13:44:49.162Z,99519.63
2023-01-08T13:47:25.899Z,99515.59
2023-01-08T13:49:55.164Z,99510.06
2023-01-08T13:52:29.567Z,99514.84
2023-01-08T13:54:56.442Z,99511.63
2023-01-08T13:57:23.754Z,99519.16
2023-01-08T13:59:55.928Z,99502.41
2023-01-08T14:02:32.377Z,99501.38
2023-01-08T14:05:01.755Z,99503.94
2023-01-08T14:07:31.209Z,99498.28
2023-01-08T14:10:08.682Z,99498.72
2023-01-08T14:12:40.595Z,99504.22
2023-01-08T14:15:28.831Z,99497.41
2023-01-08T14:17:57.264Z,99498.06
2023-01-08T14:20:39.793Z,99511.19
2023-01-08T14:23:13.498Z,99516.00
2023-01-08T14:25:42.099Z,99500.50
2023-01-08T14:28:17.197Z,99493.88
2023-01-08T14:30:52.241Z,99482.63
2023-01-08T14:33:30.620Z,99487.09
2023-01-08T14:36:01.995Z,99488.81
2023-01-08T14:38:31.964Z,99480.84
2023-01-08T14:41:11.537Z,99482.53
2023-01-08T14:43:50.174Z,99477.88
2023-01-08T14:46:26.639Z,99473.28
2023-01-08T14:48:57.251Z,99477.88
2023-01-08T14:51:30.658Z,99480.75
2023-01-08T14:54:01.955Z,99461.31
2023-01-08T14:56:33.797Z,99470.19
2023-01-08T14:59:01.177Z,99461.50
2023-01-08T15:01:37.136Z,99454.59
2023-01-08T15:04:07.069Z,99450.31
2023-01-08T15:06:35.035Z,99447.34
2023-01-08T15:09:01.876Z,99441.16
2023-01-08T15:11:32.181Z,99444.13
2023-01-08T15:13:59.136Z,99436.78
2023-01-08T15:16:29.269Z,99434.19
2023-01-08T15:19:20.637Z,99433.66
2023-01-08T15:21:52.213Z,99428.34
2023-01-08T15:24:39.955Z,99426.31
2023-01-08T15:27:20.954Z,99422.69
2023-01-08T15:29:59.795Z,99424.91
2023-01-08T15:32:37.104Z,99428.53
2023-01-08T15:35:29.841Z,99429.84
2023-01-08T15:37:56.607Z,99424.28
2023-01-08T15:40:23.074Z,99429.75
2023-01-08T15:43:08.653Z,99425.75
2023-01-08T15:45:38.192Z,99422.69
2023-01-08T15:48:05.539Z,99423.19
2023-01-08T15:50:36.808Z,99420.16
2023-01-08T15:53:10.513Z,99417.03
2023-01-08T15:55:47.292Z,99418.03
2023-01-08T15:58:16.055Z,99419.34
2023-01-08T16:00:45.353Z,99425.09
2023-01-08T16:03:13.925Z,99421.84
2023-01-08T16:05:43.489Z,99421.66
2023-01-08T16:08:13.211Z,99421.38
2023-01-08T16:10:39.810Z,99420.34
2023-01-08T16:13:06.497Z,99415.53
2023-01-08T16:15:34.763Z,99420.75
2023-01-08T16:18:01.241Z,99412.56
2023-01-08T16:20:32.594Z,99410.06
2023-01-08T16:22:59.293Z,99411.06
2023-01-08T16:25:26.409Z,99408.28
2023-01-08T16:27:53.407Z,99407.94
2023-01-08T16:30:21.018Z,99406.09
2023-01-08T16:32:54.857Z,99395.75
2023-01-08T16:35:22.314Z,99408.25
2023-01-08T16:37:49.327Z,99404.72
2023-01-08T16:40:18.803Z,99403.34
2023-01-08T16:42:45.400Z,99406.31
2023-01-08T16:45:13.147Z,99407.28
2023-01-08T16:47:42.452Z,99411.66
2023-01-08T16:50:11.239Z,99422.47
2023-01-08T16:52:39.180Z,99415.91
2023-01-08T16:55:09.645Z,99412.06
2023-01-08T16:57:36.706Z,99411.91
2023-01-08T17:00:05.268Z,99411.78
2023-01-08T17:02:32.120Z,99414.41
2023-01-08T17:04:58.872Z,99405.25
2023-01-08T17:07:28.224Z,99405.16
2023-01-08T17:09:54.924Z,99393.44
2023-01-08T17:12:24.519Z,99398.16
2023-01-08T17:14:55.287Z,99386.63
2023-01-08T17:17:22.357Z,99381.06
2023-01-08T17:19:48.956Z,99381.66
2023-01-08T17:22:15.757Z,99375.91
2023-01-08T17:24:44.859Z,99372.56
2023-01-08T17:27:13.795Z,99363.50
2023-01-08T17:29:41.771Z,99361.09
2023-01-08T17:32:08.754Z,99352.38
2023-01-08T17:34:35.532Z,99350.31
2023-01-08T17:37:02.171Z,99346.25
2023-01-08T17:39:30.481Z,99338.00
2023-01-08T17:42:17.481Z,99342.00
2023-01-08T17:44:44.162Z,99343.75
2023-01-08T17:47:14.636Z,99340.78
2023-01-08T17:49:41.495Z,99332.06
2023-01-08T17:52:10.168Z,99339.09
2023-01-08T17:54:37.219Z,99333.47
2023-01-08T17:57:04.165Z,99333.00
2023-01-08T17:59:31.668Z,99327.13
2023-01-08T18:02:00.388Z,99326.69
2023-01-08T18:04:28.637Z,99325.19
2023-01-08T18:07:00.841Z,99309.72
2023-01-08T18:09:27.677Z,99314.59
2023-01-08T18:11:57.330Z,99301.25
2023-01-08T18:14:24.158Z,99307.66
2023-01-08T18:16:50.909Z,99307.94
2023-01-08T18:19:25.594Z,99309.13
2023-01-08T18:21:53.915Z,99308.66
2023-01-08T18:24:20.923Z,99305.69
2023-01-08T18:26:49.699Z,99306.88
2023-01-08T18:29:19.876Z,99297.97
2023-01-08T18:31:46.826Z,99304.91
2023-01-08T18:34:17.000Z,99296.50
2023-01-08T18:36:43.773Z,99297.13
2023-01-08T18:39:17.556Z,99285.44
2023-01-08T18:42:02.752Z,99275.81
2023-01-08T18:44:29.543Z,99281.63
2023-01-08T18:46:56.504Z,99274.81
2023-01-08T18:49:27.670Z,99275.06
2023-01-08T18:51:54.590Z,99259.22
2023-01-08T18:54:21.451Z,99263.66
2023-01-08T18:56:48.641Z,99257.53
2023-01-08T18:59:15.462Z,99267.06
2023-01-08T19:01:42.173Z,99254.59
2023-01-08T19:04:18.275Z,99244.38
2023-01-08T19:06:48.060Z,99250.84
2023-01-08T19:09:16.043Z,99246.69
2023-01-08T19:11:49.101Z,99242.72
2023-01-08T19:14:18.056Z,99241.59
2023-01-08T19:16:55.444Z,99227.03
2023-01-08T19:19:23.842Z,99226.25
2023-01-08T19:21:53.133Z,99217.97
2023-01-08T19:24:20.189Z,99219.19
2023-01-08T19:26:52.069Z,99210.47
2023-01-08T19:29:21.367Z,99210.66
2023-01-08T19:31:48.050Z,99203.91
2023-01-08T19:34:14.519Z,99205.47
2023-01-08T19:36:43.759Z,99199.81
2023-01-08T19:39:11.509Z,99201.28
2023-01-08T19:41:57.826Z,99206.88
2023-01-08T19:44:24.558Z,99194.00
2023-01-08T19:46:51.327Z,99194.81
2023-01-08T19:49:26.503Z,99193.25
2023-01-08T19:51:53.457Z,99194.47
2023-01-08T19:54:22.518Z,99188.06
2023-01-08T19:56:49.500Z,99185.34
2023-01-08T19:59:16.092Z,99185.00
2023-01-08T20:01:42.942Z,99180.09
2023-01-08T20:04:13.461Z,99173.03
2023-01-08T20:06:40.325Z,99165.97
2023-01-08T20:09:09.893Z,99156.44
2023-01-08T20:11:36.978Z,99144.66
2023-01-08T20:14:05.578Z,99149.03
2023-01-08T20:16:32.837Z,99144.41
2023-01-08T20:19:04.920Z,99144.03
2023-01-08T20:21:38.362Z,99133.84
2023-01-08T20:24:11.663Z,99132.38
2023-01-08T20:26:40.744Z,99133.66
2023-01-08T20:29:14.515Z,99142.34
2023-01-08T20:31:42.655Z,99139.75
2023-01-08T20:34:18.393Z,99132.47
2023-01-08T20:36:45.630Z,99142.00
2023-01-08T20:39:15.953Z,99130.41
2023-01-08T20:41:50.261Z,99130.22
2023-01-08T20:44:28.298Z,99126.41
2023-01-08T20:46:57.350Z,99122.72
2023-01-08T20:49:29.579Z,99126.03
2023-01-08T20:52:01.172Z,99108.53
2023-01-08T20:54:30.470Z,99105.19
2023-01-08T20:57:01.162Z,99102.22
2023-01-08T20:59:31.661Z,99102.41
2023-01-08T21:01:59.085Z,99108.81
2023-01-08T21:04:26.101Z,99106.28
2023-01-08T21:06:53.200Z,99103.59
2023-01-08T21:09:20.171Z,99104.19
2023-01-08T21:11:47.104Z,99092.41
2023-01-08T21:14:17.285Z,99087.31
2023-01-08T21:16:44.115Z,99092.59
2023-01-08T21:19:11.304Z,99092.50
2023-01-08T21:21:41.199Z,99097.97
2023-01-08T21:24:10.505Z,99088.69
2023-01-08T21:26:38.149Z,99095.75
2023-01-08T21:29:06.622Z,99084.88
2023-01-08T21:31:35.088Z,99078.31
2023-01-08T21:34:03.125Z,99058.59
2023-01-08T21:36:32.016Z,99072.28
2023-01-08T21:39:00.307Z,99069.03
2023-01-08T21:41:47.363Z,99068.75
2023-01-08T21:44:38.559Z,99062.38
2023-01-08T21:47:08.511Z,99052.38
2023-01-08T21:49:36.269Z,99047.84
2023-01-08T21:52:21.926Z,99054.25
2023-01-08T21:54:48.483Z,99049.50
2023-01-08T21:57:16.655Z,99048.88
2023-01-08T21:59:43.438Z,99050.53
2023-01-08T22:02:16.229Z,99049.50
2023-01-08T22:04:44.552Z,99041.44
2023-01-08T22:07:14.374Z,99046.25
2023-01-08T22:09:53.000Z,99038.66
2023-01-08T22:12:20.682Z,99031.97
2023-01-08T22:14:47.281Z,99020.47
2023-01-08T22:17:14.077Z,99025.50
2023-01-08T22:19:43.233Z,99020.94
2023-01-08T22:22:11.143Z,99017.69
2023-01-08T22:24:39.056Z,99018.25
2023-01-08T22:27:07.334Z,99022.50
2023-01-08T22:29:34.282Z,99024.28
2023-01-08T22:32:02.440Z,99026.38
2023-01-08T22:34:33.553Z,99017.94
2023-01-08T22:37:00.278Z,99026.31
2023-01-08T22:39:27.248Z,99022.22
2023-01-08T22:41:54.012Z,99030.75
2023-01-08T22:44:20.837Z,99030.41
2023-01-08T22:46:47.706Z,99053.03
2023-01-08T22:49:14.583Z,99050.16
2023-01-08T22:51:50.975Z,99056.38
2023-01-08T22:54:18.231Z,99071.94
2023-01-08T22:56:44.854Z,99077.75
2023-01-08T22:59:11.531Z,99087.13
2023-01-08T23:01:38.468Z,99076.66
2023-01-08T23:04:05.214Z,99087.69
2023-01-08T23:06:32.641Z,99086.78
2023-01-08T23:08:59.598Z,99099.56
2023-01-08T23:11:27.067Z,99097.03
2023-01-08T23:13:54.365Z,99102.53
2023-01-08T23:16:24.609Z,99109.00
2023-01-08T23:18:52.353Z,99099.28
2023-01-08T23:21:21.265Z,99077.41
2023-01-08T23:23:48.477Z,99069.63
2023-01-08T23:26:29.471Z,99081.75
2023-01-08T23:28:57.372Z,99085.47
2023-01-08T23:31:26.680Z,99096.59
2023-01-08T23:33:54.210Z,99116.28
2023-01-08T23:36:21.449Z,99110.63
2023-01-08T23:38:50.447Z,99113.16
2023-01-08T23:41:18.219Z,99123.34
2023-01-08T23:43:46.078Z,99119.25
2023-01-08T23:46:13.899Z,99127.03
2023-01-08T23:48:41.822Z,99112.75
2023-01-08T23:51:08.917Z,99112.75
2023-01-08T23:53:35.692Z,99108.63
2023-01-08T23:56:02.431Z,99107.28
2023-01-08T23:58:28.863Z,99108.78
